PHVFC EHLE-EHLE
Flight info
| Callsign | PHVFC |
|---|---|
| Flight time | 0h 49m |
| Altitude | 1500 |
| Route | DCT 522608N0053210E DCT 522442N0053502E/N0111F020 522140N0053706E 5223N00543E 522659N0055039E DCT LE120 DCT LE107 DCT 523643N0053841E 523946N0053538E 523438N0053142E 523253N0053152E DCT 522821N0052910E DCT |
| Aircraft | P28A/L-SDFRY/C |
Departure
| Time | 2026-04-11 16:10 |
|---|---|
| Airport | Lelystad Airport (EHLE) |
Arrival
| Time | 2026-04-11 17:00 |
|---|---|
| Airport | Lelystad Airport (EHLE) |
| Time | Latitude | Longitude | Altitude | Speed | Heading |
|---|---|---|---|---|---|
| 2026-04-11 16:02 | 52.45809 | 5.52832 | -10 ft | 0 kts | 276° |
| 2026-04-11 16:07 | 52.45833 | 5.52784 | -10 ft | 7 kts | 304° |
| 2026-04-11 16:07 | 52.45813 | 5.52728 | -10 ft | 6 kts | 228° |
| 2026-04-11 16:07 | 52.45788 | 5.52684 | -10 ft | 5 kts | 227° |
| 2026-04-11 16:08 | 52.45765 | 5.52640 | -10 ft | 7 kts | 243° |
| 2026-04-11 16:08 | 52.45792 | 5.52607 | -9 ft | 8 kts | 37° |
| 2026-04-11 16:08 | 52.45814 | 5.52582 | -9 ft | 0 kts | 255° |
| 2026-04-11 16:08 | 52.45814 | 5.52581 | -9 ft | 0 kts | 255° |
| 2026-04-11 16:09 | 52.45813 | 5.52531 | -9 ft | 10 kts | 311° |
| 2026-04-11 16:09 | 52.45857 | 5.52457 | -8 ft | 10 kts | 288° |
| 2026-04-11 16:09 | 52.45776 | 5.52273 | -6 ft | 44 kts | 228° |
| 2026-04-11 16:10 | 52.45473 | 5.51751 | 70 ft | 72 kts | 227° |
| 2026-04-11 16:10 | 52.45144 | 5.51175 | 258 ft | 74 kts | 226° |
| 2026-04-11 16:10 | 52.44782 | 5.50563 | 455 ft | 74 kts | 228° |
| 2026-04-11 16:10 | 52.44424 | 5.49989 | 694 ft | 70 kts | 224° |
| 2026-04-11 16:11 | 52.44000 | 5.49610 | 895 ft | 78 kts | 181° |
| 2026-04-11 16:11 | 52.43509 | 5.50006 | 1144 ft | 84 kts | 138° |
| 2026-04-11 16:11 | 52.43239 | 5.50909 | 1310 ft | 98 kts | 96° |
| 2026-04-11 16:11 | 52.43448 | 5.52005 | 1441 ft | 106 kts | 53° |
| 2026-04-11 16:12 | 52.43846 | 5.53056 | 1511 ft | 114 kts | 78° |
| 2026-04-11 16:12 | 52.43586 | 5.54283 | 1549 ft | 117 kts | 130° |
| 2026-04-11 16:12 | 52.43047 | 5.55302 | 1558 ft | 124 kts | 133° |
| 2026-04-11 16:12 | 52.42447 | 5.56361 | 1478 ft | 130 kts | 134° |
| 2026-04-11 16:13 | 52.41813 | 5.57426 | 1383 ft | 131 kts | 136° |
| 2026-04-11 16:13 | 52.41160 | 5.58471 | 1297 ft | 131 kts | 137° |
| 2026-04-11 16:13 | 52.40513 | 5.59469 | 1309 ft | 125 kts | 138° |
| 2026-04-11 16:13 | 52.39872 | 5.60424 | 1307 ft | 124 kts | 140° |
| 2026-04-11 16:14 | 52.39212 | 5.61330 | 1312 ft | 123 kts | 143° |
| 2026-04-11 16:14 | 52.38546 | 5.62187 | 1323 ft | 123 kts | 143° |
| 2026-04-11 16:14 | 52.37780 | 5.62718 | 1365 ft | 118 kts | 182° |
| 2026-04-11 16:14 | 52.37028 | 5.62201 | 1334 ft | 130 kts | 218° |
| 2026-04-11 16:15 | 52.36325 | 5.61327 | 1372 ft | 122 kts | 219° |
| 2026-04-11 16:15 | 52.35632 | 5.60434 | 1360 ft | 136 kts | 220° |
| 2026-04-11 16:15 | 52.34869 | 5.59412 | 1389 ft | 144 kts | 220° |
| 2026-04-11 16:15 | 52.34088 | 5.58354 | 1454 ft | 147 kts | 221° |
| 2026-04-11 16:16 | 52.33289 | 5.57272 | 1455 ft | 151 kts | 221° |
| 2026-04-11 16:16 | 52.32475 | 5.56197 | 1464 ft | 151 kts | 216° |
| 2026-04-11 16:16 | 52.31507 | 5.55489 | 1464 ft | 153 kts | 200° |
| 2026-04-11 16:16 | 52.30501 | 5.54946 | 1481 ft | 153 kts | 199° |
| 2026-04-11 16:17 | 52.29467 | 5.54452 | 1392 ft | 159 kts | 197° |
| 2026-04-11 16:17 | 52.28747 | 5.54104 | 1323 ft | 160 kts | 200° |
| 2026-04-11 16:17 | 52.27648 | 5.52677 | 1381 ft | 152 kts | 236° |
| 2026-04-11 16:17 | 52.27097 | 5.51225 | 1426 ft | 149 kts | 240° |
| 2026-04-11 16:18 | 52.26565 | 5.49788 | 1487 ft | 147 kts | 239° |
| 2026-04-11 16:18 | 52.26242 | 5.48794 | 1512 ft | 147 kts | 248° |
| 2026-04-11 16:18 | 52.25912 | 5.47229 | 1554 ft | 146 kts | 252° |
| 2026-04-11 16:18 | 52.25600 | 5.45636 | 1566 ft | 148 kts | 253° |
| 2026-04-11 16:19 | 52.25309 | 5.44009 | 1529 ft | 150 kts | 256° |
| 2026-04-11 16:19 | 52.25180 | 5.42354 | 1563 ft | 149 kts | 269° |
| 2026-04-11 16:19 | 52.25183 | 5.40670 | 1594 ft | 148 kts | 271° |
| 2026-04-11 16:19 | 52.25032 | 5.39013 | 1611 ft | 149 kts | 251° |
| 2026-04-11 16:20 | 52.24685 | 5.37442 | 1679 ft | 147 kts | 251° |
| 2026-04-11 16:20 | 52.24338 | 5.35865 | 1678 ft | 149 kts | 251° |
| 2026-04-11 16:20 | 52.24011 | 5.34351 | 1603 ft | 153 kts | 255° |
| 2026-04-11 16:20 | 52.24037 | 5.32647 | 1581 ft | 149 kts | 285° |
| 2026-04-11 16:21 | 52.24440 | 5.31119 | 1535 ft | 146 kts | 290° |
| 2026-04-11 16:21 | 52.24656 | 5.29483 | 1360 ft | 152 kts | 273° |
| 2026-04-11 16:21 | 52.24546 | 5.27825 | 1411 ft | 143 kts | 255° |
| 2026-04-11 16:21 | 52.24129 | 5.26368 | 1412 ft | 143 kts | 238° |
| 2026-04-11 16:22 | 52.23562 | 5.25057 | 1453 ft | 140 kts | 234° |
| 2026-04-11 16:22 | 52.23167 | 5.23616 | 1332 ft | 146 kts | 266° |
| 2026-04-11 16:22 | 52.23275 | 5.21990 | 1332 ft | 142 kts | 276° |
| 2026-04-11 16:22 | 52.23377 | 5.20388 | 1365 ft | 138 kts | 274° |
| 2026-04-11 16:23 | 52.23218 | 5.18841 | 1319 ft | 142 kts | 251° |
| 2026-04-11 16:23 | 52.22885 | 5.17331 | 1304 ft | 136 kts | 251° |
| 2026-04-11 16:23 | 52.22423 | 5.16319 | 1266 ft | 103 kts | 201° |
| 2026-04-11 16:23 | 52.21798 | 5.16611 | 1283 ft | 98 kts | 134° |
| 2026-04-11 16:24 | 52.21661 | 5.17658 | 1261 ft | 99 kts | 72° |
| 2026-04-11 16:24 | 52.22132 | 5.18390 | 1183 ft | 97 kts | 9° |
| 2026-04-11 16:24 | 52.22692 | 5.17998 | 1178 ft | 92 kts | 301° |
| 2026-04-11 16:24 | 52.22782 | 5.16972 | 1143 ft | 92 kts | 266° |
| 2026-04-11 16:25 | 52.22727 | 5.15933 | 1129 ft | 92 kts | 273° |
| 2026-04-11 16:25 | 52.23010 | 5.15016 | 1107 ft | 95 kts | 316° |
| 2026-04-11 16:25 | 52.23611 | 5.14500 | 1148 ft | 101 kts | 327° |
| 2026-04-11 16:25 | 52.23903 | 5.13473 | 1195 ft | 114 kts | 268° |
| 2026-04-11 16:26 | 52.23650 | 5.12153 | 1187 ft | 129 kts | 248° |
| 2026-04-11 16:26 | 52.23273 | 5.10780 | 1197 ft | 135 kts | 246° |
| 2026-04-11 16:26 | 52.22874 | 5.09374 | 1184 ft | 137 kts | 246° |
| 2026-04-11 16:26 | 52.22475 | 5.07961 | 1193 ft | 137 kts | 246° |
| 2026-04-11 16:27 | 52.22072 | 5.06554 | 1186 ft | 137 kts | 245° |
| 2026-04-11 16:27 | 52.21764 | 5.05109 | 1164 ft | 135 kts | 268° |
| 2026-04-11 16:27 | 52.22120 | 5.03764 | 1212 ft | 132 kts | 316° |
| 2026-04-11 16:27 | 52.22942 | 5.03273 | 1375 ft | 126 kts | 359° |
| 2026-04-11 16:28 | 52.23752 | 5.03658 | 1440 ft | 120 kts | 20° |
| 2026-04-11 16:28 | 52.24588 | 5.03654 | 1282 ft | 121 kts | 331° |
| 2026-04-11 16:28 | 52.24982 | 5.02599 | 1251 ft | 111 kts | 269° |
| 2026-04-11 16:28 | 52.24633 | 5.01483 | 1144 ft | 113 kts | 221° |
| 2026-04-11 16:29 | 52.23916 | 5.00996 | 1107 ft | 109 kts | 193° |
| 2026-04-11 16:29 | 52.23212 | 5.00657 | 1077 ft | 106 kts | 212° |
| 2026-04-11 16:29 | 52.22752 | 4.99789 | 1086 ft | 100 kts | 244° |
| 2026-04-11 16:29 | 52.22568 | 4.98640 | 1139 ft | 106 kts | 267° |
| 2026-04-11 16:30 | 52.22799 | 4.97471 | 1170 ft | 116 kts | 301° |
| 2026-04-11 16:30 | 52.23298 | 4.96374 | 1167 ft | 124 kts | 307° |
| 2026-04-11 16:30 | 52.23861 | 4.95251 | 1148 ft | 127 kts | 308° |
| 2026-04-11 16:30 | 52.24443 | 4.94116 | 1141 ft | 130 kts | 309° |
| 2026-04-11 16:31 | 52.25004 | 4.92975 | 1182 ft | 130 kts | 307° |
| 2026-04-11 16:31 | 52.25564 | 4.91816 | 1222 ft | 130 kts | 307° |
| 2026-04-11 16:31 | 52.26127 | 4.90664 | 1264 ft | 130 kts | 308° |
| 2026-04-11 16:31 | 52.26691 | 4.89522 | 1229 ft | 132 kts | 307° |
| 2026-04-11 16:32 | 52.27228 | 4.88395 | 1244 ft | 109 kts | 307° |
| 2026-04-11 16:32 | 52.27649 | 4.87479 | 1264 ft | 96 kts | 304° |
| 2026-04-11 16:32 | 52.28026 | 4.86606 | 1246 ft | 93 kts | 303° |
| 2026-04-11 16:32 | 52.28391 | 4.85729 | 1207 ft | 91 kts | 302° |
| 2026-04-11 16:33 | 52.28717 | 4.84910 | 1175 ft | 83 kts | 301° |
| 2026-04-11 16:33 | 52.29019 | 4.84118 | 1163 ft | 80 kts | 299° |
| 2026-04-11 16:33 | 52.29301 | 4.83336 | 1145 ft | 79 kts | 298° |
| 2026-04-11 16:33 | 52.29572 | 4.82559 | 1097 ft | 77 kts | 298° |
| 2026-04-11 16:34 | 52.29979 | 4.82009 | 1054 ft | 80 kts | 345° |
| 2026-04-11 16:34 | 52.30512 | 4.82209 | 1048 ft | 82 kts | 28° |
| 2026-04-11 16:34 | 52.30953 | 4.82779 | 1044 ft | 79 kts | 36° |
| 2026-04-11 16:34 | 52.31487 | 4.83035 | 905 ft | 79 kts | 344° |
| 2026-04-11 16:35 | 52.31901 | 4.82487 | 746 ft | 85 kts | 299° |
| 2026-04-11 16:35 | 52.31972 | 4.81591 | 545 ft | 78 kts | 256° |
| 2026-04-11 16:35 | 52.31717 | 4.80824 | 298 ft | 78 kts | 233° |
| 2026-04-11 16:35 | 52.31321 | 4.80194 | 25 ft | 80 kts | 222° |
| 2026-04-11 16:36 | 52.30947 | 4.79655 | -10 ft | 69 kts | 225° |
| 2026-04-11 16:36 | 52.30509 | 4.79022 | 183 ft | 88 kts | 223° |
| 2026-04-11 16:36 | 52.29994 | 4.78612 | 518 ft | 87 kts | 169° |
| 2026-04-11 16:36 | 52.29522 | 4.79316 | 737 ft | 99 kts | 125° |
| 2026-04-11 16:37 | 52.29509 | 4.80455 | 883 ft | 114 kts | 62° |
| 2026-04-11 16:37 | 52.29819 | 4.81623 | 1064 ft | 119 kts | 93° |
| 2026-04-11 16:37 | 52.29430 | 4.82810 | 1220 ft | 120 kts | 126° |
| 2026-04-11 16:37 | 52.28937 | 4.83940 | 1318 ft | 128 kts | 127° |
| 2026-04-11 16:38 | 52.28374 | 4.85199 | 1346 ft | 142 kts | 127° |
| 2026-04-11 16:38 | 52.27785 | 4.86548 | 1412 ft | 149 kts | 126° |
| 2026-04-11 16:38 | 52.27183 | 4.87947 | 1483 ft | 151 kts | 125° |
| 2026-04-11 16:38 | 52.26588 | 4.89358 | 1496 ft | 150 kts | 126° |
| 2026-04-11 16:39 | 52.25976 | 4.90749 | 1477 ft | 151 kts | 127° |
| 2026-04-11 16:39 | 52.25353 | 4.92132 | 1471 ft | 151 kts | 127° |
| 2026-04-11 16:39 | 52.24725 | 4.93537 | 1465 ft | 151 kts | 127° |
| 2026-04-11 16:39 | 52.24101 | 4.94901 | 1402 ft | 154 kts | 128° |
| 2026-04-11 16:40 | 52.23431 | 4.96320 | 1237 ft | 155 kts | 129° |
| 2026-04-11 16:40 | 52.22782 | 4.97681 | 1220 ft | 149 kts | 129° |
| 2026-04-11 16:40 | 52.22132 | 4.98993 | 1182 ft | 147 kts | 131° |
| 2026-04-11 16:40 | 52.21462 | 5.00239 | 1166 ft | 145 kts | 133° |
| 2026-04-11 16:41 | 52.20925 | 5.01626 | 1151 ft | 145 kts | 114° |
| 2026-04-11 16:41 | 52.20726 | 5.02655 | 1187 ft | 142 kts | 103° |
| 2026-04-11 16:41 | 52.20594 | 5.04232 | 1242 ft | 140 kts | 96° |
| 2026-04-11 16:41 | 52.20679 | 5.05805 | 1261 ft | 140 kts | 73° |
| 2026-04-11 16:42 | 52.21182 | 5.07118 | 1255 ft | 140 kts | 35° |
| 2026-04-11 16:42 | 52.22061 | 5.07762 | 1273 ft | 138 kts | 19° |
| 2026-04-11 16:42 | 52.22959 | 5.08291 | 1319 ft | 137 kts | 17° |
| 2026-04-11 16:43 | 52.24562 | 5.09884 | 1411 ft | 137 kts | 48° |
| 2026-04-11 16:43 | 52.25044 | 5.11249 | 1397 ft | 142 kts | 69° |
| 2026-04-11 16:43 | 52.25247 | 5.12797 | 1451 ft | 138 kts | 82° |
| 2026-04-11 16:43 | 52.25387 | 5.14352 | 1467 ft | 137 kts | 81° |
| 2026-04-11 16:44 | 52.25546 | 5.15861 | 1450 ft | 137 kts | 79° |
| 2026-04-11 16:44 | 52.25719 | 5.17389 | 1463 ft | 132 kts | 79° |
| 2026-04-11 16:44 | 52.25883 | 5.18830 | 1508 ft | 131 kts | 80° |
| 2026-04-11 16:44 | 52.25909 | 5.20313 | 1527 ft | 130 kts | 90° |
| 2026-04-11 16:45 | 52.25904 | 5.21798 | 1516 ft | 133 kts | 90° |
| 2026-04-11 16:45 | 52.25853 | 5.23299 | 1547 ft | 130 kts | 97° |
| 2026-04-11 16:45 | 52.25747 | 5.24762 | 1580 ft | 130 kts | 97° |
| 2026-04-11 16:45 | 52.25630 | 5.26248 | 1556 ft | 133 kts | 97° |
| 2026-04-11 16:46 | 52.25508 | 5.27767 | 1508 ft | 136 kts | 98° |
| 2026-04-11 16:46 | 52.25379 | 5.29300 | 1486 ft | 136 kts | 97° |
| 2026-04-11 16:46 | 52.25256 | 5.30825 | 1463 ft | 136 kts | 98° |
| 2026-04-11 16:46 | 52.25124 | 5.32350 | 1429 ft | 136 kts | 98° |
| 2026-04-11 16:47 | 52.24984 | 5.33864 | 1429 ft | 134 kts | 99° |
| 2026-04-11 16:47 | 52.24838 | 5.35336 | 1477 ft | 130 kts | 99° |
| 2026-04-11 16:47 | 52.24690 | 5.36806 | 1474 ft | 132 kts | 99° |
| 2026-04-11 16:47 | 52.24710 | 5.38310 | 1445 ft | 134 kts | 80° |
| 2026-04-11 16:48 | 52.24893 | 5.39776 | 1502 ft | 129 kts | 78° |
| 2026-04-11 16:48 | 52.25073 | 5.41194 | 1589 ft | 126 kts | 77° |
| 2026-04-11 16:48 | 52.25259 | 5.42577 | 1667 ft | 125 kts | 76° |
| 2026-04-11 16:48 | 52.25463 | 5.43944 | 1733 ft | 124 kts | 75° |
| 2026-04-11 16:49 | 52.25677 | 5.45307 | 1741 ft | 128 kts | 75° |
| 2026-04-11 16:49 | 52.25912 | 5.46747 | 1683 ft | 134 kts | 75° |
| 2026-04-11 16:49 | 52.26152 | 5.48247 | 1619 ft | 137 kts | 75° |
| 2026-04-11 16:49 | 52.26388 | 5.49753 | 1584 ft | 136 kts | 76° |
| 2026-04-11 16:50 | 52.26619 | 5.51237 | 1597 ft | 133 kts | 72° |
| 2026-04-11 16:50 | 52.27004 | 5.52588 | 1610 ft | 132 kts | 56° |
| 2026-04-11 16:50 | 52.27629 | 5.53664 | 1664 ft | 126 kts | 33° |
| 2026-04-11 16:50 | 52.28383 | 5.54375 | 1691 ft | 127 kts | 27° |
| 2026-04-11 16:51 | 52.29194 | 5.55095 | 1582 ft | 133 kts | 26° |
| 2026-04-11 16:51 | 52.30006 | 5.55789 | 1517 ft | 128 kts | 26° |
| 2026-04-11 16:51 | 52.30762 | 5.56437 | 1492 ft | 121 kts | 26° |
| 2026-04-11 16:51 | 52.31499 | 5.57082 | 1470 ft | 117 kts | 27° |
| 2026-04-11 16:52 | 52.32216 | 5.57736 | 1401 ft | 120 kts | 27° |
| 2026-04-11 16:52 | 52.32930 | 5.58442 | 1336 ft | 120 kts | 31° |
| 2026-04-11 16:52 | 52.33627 | 5.59165 | 1421 ft | 119 kts | 30° |
| 2026-04-11 16:52 | 52.34340 | 5.59897 | 1465 ft | 123 kts | 31° |
| 2026-04-11 16:53 | 52.35068 | 5.60674 | 1477 ft | 128 kts | 32° |
| 2026-04-11 16:53 | 52.35863 | 5.61253 | 1503 ft | 122 kts | 6° |
| 2026-04-11 16:53 | 52.36679 | 5.61372 | 1490 ft | 114 kts | 2° |
| 2026-04-11 16:53 | 52.37474 | 5.61459 | 1443 ft | 112 kts | 1° |
| 2026-04-11 16:54 | 52.38168 | 5.61503 | 1422 ft | 91 kts | 358° |
| 2026-04-11 16:54 | 52.38786 | 5.61307 | 1328 ft | 94 kts | 334° |
| 2026-04-11 16:54 | 52.39357 | 5.60786 | 1299 ft | 91 kts | 328° |
| 2026-04-11 16:54 | 52.39900 | 5.60275 | 1297 ft | 90 kts | 327° |
| 2026-04-11 16:55 | 52.40450 | 5.59743 | 1249 ft | 93 kts | 329° |
| 2026-04-11 16:55 | 52.40990 | 5.59234 | 1285 ft | 86 kts | 327° |
| 2026-04-11 16:55 | 52.41517 | 5.58699 | 1377 ft | 91 kts | 326° |
| 2026-04-11 16:55 | 52.42074 | 5.58085 | 1401 ft | 104 kts | 324° |
| 2026-04-11 16:56 | 52.43056 | 5.56535 | 1535 ft | 101 kts | 285° |
| 2026-04-11 16:56 | 52.43174 | 5.55406 | 1510 ft | 99 kts | 278° |
| 2026-04-11 16:56 | 52.43347 | 5.54331 | 1460 ft | 98 kts | 301° |
| 2026-04-11 16:57 | 52.43826 | 5.53538 | 1447 ft | 97 kts | 316° |
| 2026-04-11 16:57 | 52.44312 | 5.52823 | 1459 ft | 96 kts | 316° |
| 2026-04-11 16:57 | 52.44805 | 5.52110 | 1485 ft | 95 kts | 316° |
| 2026-04-11 16:57 | 52.45267 | 5.51411 | 1455 ft | 85 kts | 314° |
| 2026-04-11 16:58 | 52.45702 | 5.50746 | 1380 ft | 88 kts | 316° |
| 2026-04-11 16:58 | 52.46220 | 5.50170 | 1309 ft | 95 kts | 346° |
| 2026-04-11 16:58 | 52.46821 | 5.50575 | 1167 ft | 103 kts | 51° |
| 2026-04-11 16:58 | 52.47258 | 5.51527 | 1034 ft | 97 kts | 52° |
| 2026-04-11 16:59 | 52.47554 | 5.52453 | 930 ft | 93 kts | 82° |
| 2026-04-11 16:59 | 52.47354 | 5.53469 | 739 ft | 98 kts | 137° |
| 2026-04-11 16:59 | 52.46768 | 5.53738 | 515 ft | 85 kts | 195° |
| 2026-04-11 16:59 | 52.46299 | 5.53214 | 194 ft | 80 kts | 228° |
| 2026-04-11 17:00 | 52.45948 | 5.52582 | 38 ft | 72 kts | 229° |
| 2026-04-11 17:00 | 52.45655 | 5.52060 | -8 ft | 41 kts | 229° |
| 2026-04-11 17:00 | 52.45555 | 5.51883 | -10 ft | 14 kts | 229° |
| 2026-04-11 17:00 | 52.45500 | 5.51801 | -9 ft | 6 kts | 178° |
| 2026-04-11 17:01 | 52.45449 | 5.51856 | -9 ft | 13 kts | 137° |
| 2026-04-11 17:01 | 52.45395 | 5.51939 | -10 ft | 7 kts | 132° |
| 2026-04-11 17:01 | 52.45422 | 5.52029 | -10 ft | 13 kts | 47° |
| 2026-04-11 17:01 | 52.45503 | 5.52171 | -10 ft | 21 kts | 46° |
| 2026-04-11 17:02 | 52.45605 | 5.52357 | -9 ft | 21 kts | 55° |
| 2026-04-11 17:02 | 52.45700 | 5.52527 | -9 ft | 19 kts | 49° |
| 2026-04-11 17:02 | 52.45788 | 5.52683 | -9 ft | 18 kts | 48° |
| 2026-04-11 17:02 | 52.45841 | 5.52778 | -10 ft | 9 kts | 45° |
| 2026-04-11 17:03 | 52.45834 | 5.52828 | -10 ft | 5 kts | 135° |
| 2026-04-11 17:03 | 52.45821 | 5.52847 | -10 ft | 1 kts | 143° |
| 2026-04-11 17:03 | 52.45817 | 5.52842 | -10 ft | 0 kts | 313° |